sensor_id;sensor_type;location;lat;lon;timestamp;pressure;altitude;pressure_sealevel;temperature;humidity
32320;BME280;19080;51.750;5.888;2024-02-04T00:00:04;102105.13;;;11.19;100.00
32320;BME280;19080;51.750;5.888;2024-02-04T00:02:36;102103.25;;;11.15;100.00
32320;BME280;19080;51.750;5.888;2024-02-04T00:05:05;102104.84;;;11.09;100.00
32320;BME280;19080;51.750;5.888;2024-02-04T00:07:31;102110.16;;;11.09;100.00
32320;BME280;19080;51.750;5.888;2024-02-04T00:09:58;102092.09;;;10.99;100.00
32320;BME280;19080;51.750;5.888;2024-02-04T00:12:25;102118.97;;;11.08;100.00
32320;BME280;19080;51.750;5.888;2024-02-04T00:14:51;102110.16;;;11.09;100.00
32320;BME280;19080;51.750;5.888;2024-02-04T00:17:18;102111.97;;;11.11;100.00
32320;BME280;19080;51.750;5.888;2024-02-04T00:19:45;102104.69;;;11.05;100.00
32320;BME280;19080;51.750;5.888;2024-02-04T00:22:11;102092.78;;;10.94;100.00
32320;BME280;19080;51.750;5.888;2024-02-04T00:24:38;102074.75;;;10.84;100.00
32320;BME280;19080;51.750;5.888;2024-02-04T00:27:06;102114.16;;;10.97;100.00
32320;BME280;19080;51.750;5.888;2024-02-04T00:29:32;102107.13;;;10.99;100.00
32320;BME280;19080;51.750;5.888;2024-02-04T00:31:59;102111.53;;;10.98;100.00
32320;BME280;19080;51.750;5.888;2024-02-04T00:34:26;102090.78;;;10.87;100.00
32320;BME280;19080;51.750;5.888;2024-02-04T00:36:52;102111.41;;;10.94;100.00
32320;BME280;19080;51.750;5.888;2024-02-04T00:39:19;102101.63;;;10.93;100.00
32320;BME280;19080;51.750;5.888;2024-02-04T00:41:46;102090.69;;;10.84;100.00
32320;BME280;19080;51.750;5.888;2024-02-04T00:44:12;102098.91;;;10.91;100.00
32320;BME280;19080;51.750;5.888;2024-02-04T00:46:39;102097.75;;;10.83;100.00
32320;BME280;19080;51.750;5.888;2024-02-04T00:49:05;102086.38;;;10.87;100.00
32320;BME280;19080;51.750;5.888;2024-02-04T00:51:32;102115.75;;;10.92;100.00
32320;BME280;19080;51.750;5.888;2024-02-04T00:53:59;102123.03;;;10.97;100.00
32320;BME280;19080;51.750;5.888;2024-02-04T00:56:26;102113.16;;;10.93;100.00
32320;BME280;19080;51.750;5.888;2024-02-04T00:58:52;102121.22;;;10.96;100.00
32320;BME280;19080;51.750;5.888;2024-02-04T01:01:19;102114.16;;;10.97;100.00
32320;BME280;19080;51.750;5.888;2024-02-04T01:03:46;102108.94;;;11.00;100.00
32320;BME280;19080;51.750;5.888;2024-02-04T01:06:13;102110.66;;;10.98;100.00
32320;BME280;19080;51.750;5.888;2024-02-04T01:08:40;102113.25;;;10.96;100.00
32320;BME280;19080;51.750;5.888;2024-02-04T01:11:07;102093.38;;;10.85;100.00
32320;BME280;19080;51.750;5.888;2024-02-04T01:13:33;102106.09;;;10.94;100.00
32320;BME280;19080;51.750;5.888;2024-02-04T01:16:00;102115.69;;;10.90;100.00
32320;BME280;19080;51.750;5.888;2024-02-04T01:18:27;102110.50;;;10.93;100.00
32320;BME280;19080;51.750;5.888;2024-02-04T01:20:54;102100.72;;;10.92;100.00
32320;BME280;19080;51.750;5.888;2024-02-04T01:23:21;102106.13;;;10.95;100.00
32320;BME280;19080;51.750;5.888;2024-02-04T01:25:47;102104.31;;;10.94;100.00
32320;BME280;19080;51.750;5.888;2024-02-04T01:28:14;102074.69;;;10.82;100.00
32320;BME280;19080;51.750;5.888;2024-02-04T01:30:41;102100.56;;;10.88;100.00
32320;BME280;19080;51.750;5.888;2024-02-04T01:33:07;102112.94;;;10.87;100.00
32320;BME280;19080;51.750;5.888;2024-02-04T01:35:34;102093.19;;;10.79;100.00
32320;BME280;19080;51.750;5.888;2024-02-04T01:38:01;102109.44;;;10.88;100.00
32320;BME280;19080;51.750;5.888;2024-02-04T01:40:28;102075.34;;;10.75;100.00
32320;BME280;19080;51.750;5.888;2024-02-04T01:42:54;102107.63;;;10.87;100.00
32320;BME280;19080;51.750;5.888;2024-02-04T01:45:22;102110.34;;;10.89;100.00
32320;BME280;19080;51.750;5.888;2024-02-04T01:47:49;102108.53;;;10.88;100.00
32320;BME280;19080;51.750;5.888;2024-02-04T01:50:16;102114.75;;;10.88;100.00
32320;BME280;19080;51.750;5.888;2024-02-04T01:52:43;102106.81;;;10.90;100.00
32320;BME280;19080;51.750;5.888;2024-02-04T01:55:11;102089.56;;;10.77;100.00
32320;BME280;19080;51.750;5.888;2024-02-04T01:57:38;102101.50;;;10.90;100.00
32320;BME280;19080;51.750;5.888;2024-02-04T02:00:06;102108.53;;;10.88;100.00
32320;BME280;19080;51.750;5.888;2024-02-04T02:02:39;102110.38;;;10.90;100.00
32320;BME280;19080;51.750;5.888;2024-02-04T02:05:07;102110.50;;;10.93;100.00
32320;BME280;19080;51.750;5.888;2024-02-04T02:07:35;102097.09;;;10.90;100.00
32320;BME280;19080;51.750;5.888;2024-02-04T02:10:01;102087.13;;;10.83;100.00
32320;BME280;19080;51.750;5.888;2024-02-04T02:12:34;102104.16;;;10.90;100.00
32320;BME280;19080;51.750;5.888;2024-02-04T02:15:11;102099.66;;;10.87;100.00
32320;BME280;19080;51.750;5.888;2024-02-04T02:18:06;102121.97;;;10.92;100.00
32320;BME280;19080;51.750;5.888;2024-02-04T02:23:30;102116.66;;;10.92;100.00
32320;BME280;19080;51.750;5.888;2024-02-04T02:25:57;102101.88;;;10.75;100.00
32320;BME280;19080;51.750;5.888;2024-02-04T02:28:24;102110.28;;;10.87;100.00
32320;BME280;19080;51.750;5.888;2024-02-04T02:30:51;102115.66;;;10.89;100.00
32320;BME280;19080;51.750;5.888;2024-02-04T02:33:18;102081.50;;;10.74;100.00
32320;BME280;19080;51.750;5.888;2024-02-04T02:35:46;102068.13;;;10.71;100.00
32320;BME280;19080;51.750;5.888;2024-02-04T02:38:46;102095.28;;;10.89;100.00
32320;BME280;19080;51.750;5.888;2024-02-04T02:41:18;102087.22;;;10.86;100.00
32320;BME280;19080;51.750;5.888;2024-02-04T02:43:47;102038.59;;;10.62;100.00
32320;BME280;19080;51.750;5.888;2024-02-04T02:46:15;102071.25;;;10.85;100.00
32320;BME280;19080;51.750;5.888;2024-02-04T02:48:42;102073.84;;;10.83;100.00
32320;BME280;19080;51.750;5.888;2024-02-04T02:51:09;102075.66;;;10.84;100.00
32320;BME280;19080;51.750;5.888;2024-02-04T02:53:36;102080.09;;;10.85;100.00
32320;BME280;19080;51.750;5.888;2024-02-04T02:56:03;102084.56;;;10.86;100.00
32320;BME280;19080;51.750;5.888;2024-02-04T02:58:29;102075.44;;;10.78;100.00
32320;BME280;19080;51.750;5.888;2024-02-04T03:00:57;102077.66;;;10.91;100.00
32320;BME280;19080;51.750;5.888;2024-02-04T03:03:24;102071.44;;;10.91;100.00
32320;BME280;19080;51.750;5.888;2024-02-04T03:05:51;102046.16;;;10.76;100.00
32320;BME280;19080;51.750;5.888;2024-02-04T03:08:17;102075.94;;;10.93;100.00
32320;BME280;19080;51.750;5.888;2024-02-04T03:10:45;102059.84;;;10.89;100.00
32320;BME280;19080;51.750;5.888;2024-02-04T03:13:11;102074.25;;;10.95;100.00
32320;BME280;19080;51.750;5.888;2024-02-04T03:15:38;102081.47;;;10.99;100.00
32320;BME280;19080;51.750;5.888;2024-02-04T03:18:07;102078.88;;;11.01;100.00
32320;BME280;19080;51.750;5.888;2024-02-04T03:20:34;102070.84;;;10.99;100.00
32320;BME280;19080;51.750;5.888;2024-02-04T03:23:00;102068.19;;;10.99;100.00
32320;BME280;19080;51.750;5.888;2024-02-04T03:25:27;102069.25;;;11.04;100.00
32320;BME280;19080;51.750;5.888;2024-02-04T03:27:56;102072.69;;;11.02;100.00
32320;BME280;19080;51.750;5.888;2024-02-04T03:30:23;102090.59;;;11.07;100.00
32320;BME280;19080;51.750;5.888;2024-02-04T03:32:49;102079.88;;;11.04;100.00
32320;BME280;19080;51.750;5.888;2024-02-04T03:35:16;102068.94;;;10.95;100.00
32320;BME280;19080;51.750;5.888;2024-02-04T03:37:43;102076.81;;;10.92;100.00
32320;BME280;19080;51.750;5.888;2024-02-04T03:40:10;102079.34;;;10.89;100.00
32320;BME280;19080;51.750;5.888;2024-02-04T03:42:37;102048.56;;;10.69;100.00
32320;BME280;19080;51.750;5.888;2024-02-04T03:45:05;102079.06;;;10.80;100.00
32320;BME280;19080;51.750;5.888;2024-02-04T03:47:31;102082.44;;;10.76;100.00
32320;BME280;19080;51.750;5.888;2024-02-04T03:49:58;102075.28;;;10.73;100.00
32320;BME280;19080;51.750;5.888;2024-02-04T03:52:25;102058.03;;;10.61;100.00
32320;BME280;19080;51.750;5.888;2024-02-04T03:54:51;102070.56;;;10.65;100.00
32320;BME280;19080;51.750;5.888;2024-02-04T03:57:18;102085.97;;;10.75;100.00
32320;BME280;19080;51.750;5.888;2024-02-04T03:59:45;102093.06;;;10.76;100.00
32320;BME280;19080;51.750;5.888;2024-02-04T04:02:15;102076.81;;;10.67;100.00
32320;BME280;19080;51.750;5.888;2024-02-04T04:04:41;102098.28;;;10.73;100.00
32320;BME280;19080;51.750;5.888;2024-02-04T04:07:09;102093.06;;;10.76;100.00
32320;BME280;19080;51.750;5.888;2024-02-04T04:09:36;102100.19;;;10.77;100.00
32320;BME280;19080;51.750;5.888;2024-02-04T04:12:03;102116.03;;;10.74;100.00
32320;BME280;19080;51.750;5.888;2024-02-04T04:14:29;102115.91;;;10.71;100.00
32320;BME280;19080;51.750;5.888;2024-02-04T04:16:56;102123.03;;;10.72;100.00
32320;BME280;19080;51.750;5.888;2024-02-04T04:19:22;102125.56;;;10.69;100.00
32320;BME280;19080;51.750;5.888;2024-02-04T04:21:51;102119.41;;;10.70;100.00
32320;BME280;19080;51.750;5.888;2024-02-04T04:24:17;102108.69;;;10.67;100.00
32320;BME280;19080;51.750;5.888;2024-02-04T04:26:48;102090.84;;;10.63;100.00
32320;BME280;19080;51.750;5.888;2024-02-04T04:29:15;102080.28;;;10.64;100.00
32320;BME280;19080;51.750;5.888;2024-02-04T04:31:41;102081.19;;;10.65;100.00
32320;BME280;19080;51.750;5.888;2024-02-04T04:34:08;102072.09;;;10.58;100.00
32320;BME280;19080;51.750;5.888;2024-02-04T04:36:35;102064.19;;;10.60;100.00
32320;BME280;19080;51.750;5.888;2024-02-04T04:39:01;102076.50;;;10.58;100.00
32320;BME280;19080;51.750;5.888;2024-02-04T04:41:28;102082.72;;;10.58;100.00
32320;BME280;19080;51.750;5.888;2024-02-04T04:43:55;102063.38;;;10.62;100.00
32320;BME280;19080;51.750;5.888;2024-02-04T04:46:21;102045.69;;;10.63;100.00
32320;BME280;19080;51.750;5.888;2024-02-04T04:48:48;102058.19;;;10.65;100.00
32320;BME280;19080;51.750;5.888;2024-02-04T04:51:15;102060.03;;;10.68;100.00
32320;BME280;19080;51.750;5.888;2024-02-04T04:53:41;102057.50;;;10.71;100.00
32320;BME280;19080;51.750;5.888;2024-02-04T04:56:08;102055.56;;;10.67;100.00
32320;BME280;19080;51.750;5.888;2024-02-04T04:58:35;102052.97;;;10.68;100.00
32320;BME280;19080;51.750;5.888;2024-02-04T05:01:02;102036.13;;;10.68;100.00
32320;BME280;19080;51.750;5.888;2024-02-04T05:03:28;102047.03;;;10.75;100.00
32320;BME280;19080;51.750;5.888;2024-02-04T05:05:55;102018.41;;;10.67;100.00
32320;BME280;19080;51.750;5.888;2024-02-04T05:08:22;102033.09;;;10.83;100.00
32320;BME280;19080;51.750;5.888;2024-02-04T05:10:48;102024.31;;;10.85;100.00
32320;BME280;19080;51.750;5.888;2024-02-04T05:13:15;102022.72;;;10.90;100.00
32320;BME280;19080;51.750;5.888;2024-02-04T05:15:41;102029.88;;;10.93;100.00
32320;BME280;19080;51.750;5.888;2024-02-04T05:18:08;102024.44;;;10.88;100.00
32320;BME280;19080;51.750;5.888;2024-02-04T05:20:35;102027.13;;;10.90;100.00
32320;BME280;19080;51.750;5.888;2024-02-04T05:23:02;102028.13;;;10.93;100.00
32320;BME280;19080;51.750;5.888;2024-02-04T05:25:28;102018.47;;;10.95;100.00
32320;BME280;19080;51.750;5.888;2024-02-04T05:27:55;102019.41;;;10.97;100.00
32320;BME280;19080;51.750;5.888;2024-02-04T05:30:22;102022.81;;;10.93;100.00
32320;BME280;19080;51.750;5.888;2024-02-04T05:32:48;102015.50;;;10.86;100.00
32320;BME280;19080;51.750;5.888;2024-02-04T05:35:15;102035.06;;;10.88;100.00
32320;BME280;19080;51.750;5.888;2024-02-04T05:37:42;102022.63;;;10.87;100.00
32320;BME280;19080;51.750;5.888;2024-02-04T05:40:09;102008.09;;;10.76;100.00
32320;BME280;19080;51.750;5.888;2024-02-04T05:42:35;102020.81;;;10.86;100.00
32320;BME280;19080;51.750;5.888;2024-02-04T05:45:04;102025.31;;;10.89;100.00
32320;BME280;19080;51.750;5.888;2024-02-04T05:47:32;102011.69;;;10.78;100.00
32320;BME280;19080;51.750;5.888;2024-02-04T05:49:59;102032.34;;;10.87;100.00
32320;BME280;19080;51.750;5.888;2024-02-04T05:52:26;102028.53;;;10.79;100.00
32320;BME280;19080;51.750;5.888;2024-02-04T05:54:52;102040.16;;;10.82;100.00
32320;BME280;19080;51.750;5.888;2024-02-04T05:57:19;102011.34;;;10.67;100.00
32320;BME280;19080;51.750;5.888;2024-02-04T05:59:47;102028.44;;;10.75;100.00
32320;BME280;19080;51.750;5.888;2024-02-04T06:02:14;102024.03;;;10.76;100.00
32320;BME280;19080;51.750;5.888;2024-02-04T06:04:41;102008.88;;;10.73;100.00
32320;BME280;19080;51.750;5.888;2024-02-04T06:07:08;101998.16;;;10.70;100.00
32320;BME280;19080;51.750;5.888;2024-02-04T06:09:35;101991.59;;;10.59;100.00
32320;BME280;19080;51.750;5.888;2024-02-04T06:12:02;101994.25;;;10.59;100.00
32320;BME280;19080;51.750;5.888;2024-02-04T06:14:33;102013.19;;;10.70;100.00
32320;BME280;19080;51.750;5.888;2024-02-04T06:17:01;102013.28;;;10.73;100.00
32320;BME280;19080;51.750;5.888;2024-02-04T06:19:27;102018.50;;;10.70;100.00
32320;BME280;19080;51.750;5.888;2024-02-04T06:21:54;102001.72;;;10.71;100.00
32320;BME280;19080;51.750;5.888;2024-02-04T06:24:21;101989.84;;;10.60;100.00
32320;BME280;19080;51.750;5.888;2024-02-04T06:26:47;102000.03;;;10.73;100.00
32320;BME280;19080;51.750;5.888;2024-02-04T06:29:14;101998.16;;;10.70;100.00
32320;BME280;19080;51.750;5.888;2024-02-04T06:31:44;101983.88;;;10.67;100.00
32320;BME280;19080;51.750;5.888;2024-02-04T06:34:12;101977.53;;;10.62;100.00
32320;BME280;19080;51.750;5.888;2024-02-04T06:36:42;101968.69;;;10.63;100.00
32320;BME280;19080;51.750;5.888;2024-02-04T06:39:10;101974.81;;;10.60;100.00
32320;BME280;19080;51.750;5.888;2024-02-04T06:41:37;101992.16;;;10.76;100.00
32320;BME280;19080;51.750;5.888;2024-02-04T06:44:04;101990.25;;;10.72;100.00
32320;BME280;19080;51.750;5.888;2024-02-04T06:46:31;101994.81;;;10.76;100.00
32320;BME280;19080;51.750;5.888;2024-02-04T06:48:57;101977.91;;;10.74;100.00
32320;BME280;19080;51.750;5.888;2024-02-04T06:51:24;101998.31;;;10.75;100.00
32320;BME280;19080;51.750;5.888;2024-02-04T06:53:51;101984.19;;;10.76;100.00
32320;BME280;19080;51.750;5.888;2024-02-04T06:56:17;101986.00;;;10.77;100.00
32320;BME280;19080;51.750;5.888;2024-02-04T06:58:44;101981.19;;;10.65;100.00
32320;BME280;19080;51.750;5.888;2024-02-04T07:01:11;101992.16;;;10.76;100.00
32320;BME280;19080;51.750;5.888;2024-02-04T07:03:38;101983.63;;;10.59;100.00
32320;BME280;19080;51.750;5.888;2024-02-04T07:06:05;101975.72;;;10.61;100.00
32320;BME280;19080;51.750;5.888;2024-02-04T07:08:32;102011.59;;;10.75;100.00
32320;BME280;19080;51.750;5.888;2024-02-04T07:10:59;102008.09;;;10.76;100.00
32320;BME280;19080;51.750;5.888;2024-02-04T07:13:26;101992.69;;;10.66;100.00
32320;BME280;19080;51.750;5.888;2024-02-04T07:15:52;102018.72;;;10.76;100.00
32320;BME280;19080;51.750;5.888;2024-02-04T07:18:21;102009.69;;;10.71;100.00
32320;BME280;19080;51.750;5.888;2024-02-04T07:20:48;102022.16;;;10.73;100.00
32320;BME280;19080;51.750;5.888;2024-02-04T07:23:15;102023.22;;;10.79;100.00
32320;BME280;19080;51.750;5.888;2024-02-04T07:25:42;102002.38;;;10.64;100.00
32320;BME280;19080;51.750;5.888;2024-02-04T07:28:09;102013.41;;;10.76;100.00
32320;BME280;19080;51.750;5.888;2024-02-04T07:30:36;102010.63;;;10.73;100.00
32320;BME280;19080;51.750;5.888;2024-02-04T07:33:02;102015.09;;;10.74;100.00
32320;BME280;19080;51.750;5.888;2024-02-04T07:35:29;102008.09;;;10.76;100.00
32320;BME280;19080;51.750;5.888;2024-02-04T07:37:56;102007.19;;;10.75;100.00
32320;BME280;19080;51.750;5.888;2024-02-04T07:40:22;101988.25;;;10.65;100.00
32320;BME280;19080;51.750;5.888;2024-02-04T07:42:49;102000.88;;;10.72;100.00
32320;BME280;19080;51.750;5.888;2024-02-04T07:45:16;101991.75;;;10.64;100.00
32320;BME280;19080;51.750;5.888;2024-02-04T07:47:42;102009.94;;;10.79;100.00
32320;BME280;19080;51.750;5.888;2024-02-04T07:50:09;101986.69;;;10.71;100.00
32320;BME280;19080;51.750;5.888;2024-02-04T07:52:36;101992.06;;;10.73;100.00
32320;BME280;19080;51.750;5.888;2024-02-04T07:55:03;101957.78;;;10.54;100.00
32320;BME280;19080;51.750;5.888;2024-02-04T07:57:29;101975.47;;;10.53;100.00
32320;BME280;19080;51.750;5.888;2024-02-04T07:59:56;102004.28;;;10.68;100.00
32320;BME280;19080;51.750;5.888;2024-02-04T08:02:24;102006.72;;;10.62;100.00
32320;BME280;19080;51.750;5.888;2024-02-04T08:04:51;102004.81;;;10.58;100.00
32320;BME280;19080;51.750;5.888;2024-02-04T08:07:17;101986.22;;;10.31;100.00
32320;BME280;19080;51.750;5.888;2024-02-04T08:09:47;101999.78;;;10.38;100.00
32320;BME280;19080;51.750;5.888;2024-02-04T08:12:13;102005.66;;;10.30;100.00
32320;BME280;19080;51.750;5.888;2024-02-04T08:14:40;101974.88;;;10.11;100.00
32320;BME280;19080;51.750;5.888;2024-02-04T08:17:06;101995.25;;;10.12;100.00
32320;BME280;19080;51.750;5.888;2024-02-04T08:19:33;101983.69;;;10.10;100.00
32320;BME280;19080;51.750;5.888;2024-02-04T08:22:00;101971.00;;;10.01;100.00
32320;BME280;19080;51.750;5.888;2024-02-04T08:24:27;101974.94;;;10.13;100.00
32320;BME280;19080;51.750;5.888;2024-02-04T08:26:56;101971.44;;;10.14;100.00
32320;BME280;19080;51.750;5.888;2024-02-04T08:29:22;101950.97;;;10.09;100.00
32320;BME280;19080;51.750;5.888;2024-02-04T08:31:49;101977.91;;;10.20;100.00
32320;BME280;19080;51.750;5.888;2024-02-04T08:34:15;101977.25;;;10.27;100.00
32320;BME280;19080;51.750;5.888;2024-02-04T08:36:42;101956.78;;;10.23;100.00
32320;BME280;19080;51.750;5.888;2024-02-04T08:39:09;101981.19;;;10.38;100.00
32320;BME280;19080;51.750;5.888;2024-02-04T08:41:36;101977.06;;;10.48;100.00
32320;BME280;19080;51.750;5.888;2024-02-04T08:44:02;101975.31;;;10.49;100.00
32320;BME280;19080;51.750;5.888;2024-02-04T08:46:30;101979.13;;;10.57;100.00
32320;BME280;19080;51.750;5.888;2024-02-04T08:48:56;101971.34;;;10.63;100.00
32320;BME280;19080;51.750;5.888;2024-02-04T08:51:23;101982.03;;;10.64;100.00
32320;BME280;19080;51.750;5.888;2024-02-04T08:53:51;101977.72;;;10.68;100.00
32320;BME280;19080;51.750;5.888;2024-02-04T08:56:18;101960.47;;;10.55;100.00
32320;BME280;19080;51.750;5.888;2024-02-04T08:58:45;101975.72;;;10.61;100.00
32320;BME280;19080;51.750;5.888;2024-02-04T09:01:12;101987.66;;;10.73;100.00
32320;BME280;19080;51.750;5.888;2024-02-04T09:03:39;101986.84;;;10.76;100.00
32320;BME280;19080;51.750;5.888;2024-02-04T09:06:05;101983.53;;;10.83;100.00
32320;BME280;19080;51.750;5.888;2024-02-04T09:08:32;101983.59;;;10.85;100.00
32320;BME280;19080;51.750;5.888;2024-02-04T09:10:58;101980.94;;;10.85;100.00
32320;BME280;19080;51.750;5.888;2024-02-04T09:13:25;101974.72;;;10.84;100.00
32320;BME280;19080;51.750;5.888;2024-02-04T09:15:52;101988.09;;;10.87;100.00
32320;BME280;19080;51.750;5.888;2024-02-04T09:18:20;101980.13;;;10.87;100.00
32320;BME280;19080;51.750;5.888;2024-02-04T09:20:47;101982.78;;;10.87;100.00
32320;BME280;19080;51.750;5.888;2024-02-04T09:23:14;101981.13;;;10.91;100.00
32320;BME280;19080;51.750;5.888;2024-02-04T09:25:41;101971.25;;;10.87;100.00
32320;BME280;19080;51.750;5.888;2024-02-04T09:28:07;101980.41;;;10.96;100.00
32320;BME280;19080;51.750;5.888;2024-02-04T09:30:34;101975.09;;;10.96;100.00
32320;BME280;19080;51.750;5.888;2024-02-04T09:33:01;101979.00;;;11.07;100.00
32320;BME280;19080;51.750;5.888;2024-02-04T09:35:28;101961.34;;;11.09;100.00
32320;BME280;19080;51.750;5.888;2024-02-04T09:37:55;101985.56;;;11.19;100.00
32320;BME280;19080;51.750;5.888;2024-02-04T09:40:22;101983.06;;;11.25;100.00
32320;BME280;19080;51.750;5.888;2024-02-04T09:42:49;101974.44;;;11.32;100.00
32320;BME280;19080;51.750;5.888;2024-02-04T09:45:16;101974.63;;;11.38;100.00
32320;BME280;19080;51.750;5.888;2024-02-04T09:47:45;101987.25;;;11.45;100.00
32320;BME280;19080;51.750;5.888;2024-02-04T09:50:12;101982.97;;;11.50;100.00
32320;BME280;19080;51.750;5.888;2024-02-04T09:52:48;101980.50;;;11.56;100.00
32320;BME280;19080;51.750;5.888;2024-02-04T09:55:18;101973.28;;;11.52;100.00
32320;BME280;19080;51.750;5.888;2024-02-04T09:57:46;101976.97;;;11.57;100.00
32320;BME280;19080;51.750;5.888;2024-02-04T10:00:13;101974.44;;;11.62;100.00
32320;BME280;19080;51.750;5.888;2024-02-04T10:02:41;101974.72;;;11.71;100.00
32320;BME280;19080;51.750;5.888;2024-02-04T10:05:08;101973.91;;;11.73;100.00
32320;BME280;19080;51.750;5.888;2024-02-04T10:07:37;101984.75;;;11.80;100.00
32320;BME280;19080;51.750;5.888;2024-02-04T10:10:05;101977.47;;;11.74;100.00
32320;BME280;19080;51.750;5.888;2024-02-04T10:12:33;101986.63;;;11.84;100.00
32320;BME280;19080;51.750;5.888;2024-02-04T10:15:02;101971.28;;;11.75;100.00
32320;BME280;19080;51.750;5.888;2024-02-04T10:17:32;101995.66;;;11.89;100.00
32320;BME280;19080;51.750;5.888;2024-02-04T10:20:00;101983.28;;;11.91;100.00
32320;BME280;19080;51.750;5.888;2024-02-04T10:22:27;101987.09;;;12.00;100.00
32320;BME280;19080;51.750;5.888;2024-02-04T10:25:05;101987.94;;;11.98;100.00
32320;BME280;19080;51.750;5.888;2024-02-04T10:27:32;101984.28;;;11.94;100.00
32320;BME280;19080;51.750;5.888;2024-02-04T10:30:04;101997.84;;;12.03;100.00
32320;BME280;19080;51.750;5.888;2024-02-04T10:32:31;101969.97;;;11.91;100.00
32320;BME280;19080;51.750;5.888;2024-02-04T10:34:58;101994.34;;;12.06;100.00
32320;BME280;19080;51.750;5.888;2024-02-04T10:37:26;102001.06;;;11.92;100.00
32320;BME280;19080;51.750;5.888;2024-02-04T10:39:56;102008.81;;;11.84;100.00
32320;BME280;19080;51.750;5.888;2024-02-04T10:42:27;101994.91;;;11.64;100.00
32320;BME280;19080;51.750;5.888;2024-02-04T10:44:54;102005.28;;;11.55;100.00
32320;BME280;19080;51.750;5.888;2024-02-04T10:47:30;102009.75;;;11.56;100.00
32320;BME280;19080;51.750;5.888;2024-02-04T10:50:02;101994.94;;;11.36;100.00
32320;BME280;19080;51.750;5.888;2024-02-04T10:52:38;101975.88;;;11.21;100.00
32320;BME280;19080;51.750;5.888;2024-02-04T10:55:08;101990.97;;;11.22;100.00
32320;BME280;19080;51.750;5.888;2024-02-04T10:57:35;101995.31;;;11.20;100.00
32320;BME280;19080;51.750;5.888;2024-02-04T11:00:04;101987.81;;;11.06;100.00
32320;BME280;19080;51.750;5.888;2024-02-04T11:02:35;101993.03;;;11.03;100.00
32320;BME280;19080;51.750;5.888;2024-02-04T11:05:06;102004.78;;;11.10;100.00
32320;BME280;19080;51.750;5.888;2024-02-04T11:07:33;101986.22;;;11.12;100.00
32320;BME280;19080;51.750;5.888;2024-02-04T11:10:01;101979.00;;;11.07;100.00
32320;BME280;19080;51.750;5.888;2024-02-04T11:12:29;101962.25;;;11.10;100.00
32320;BME280;19080;51.750;5.888;2024-02-04T11:15:00;101971.22;;;11.14;100.00
32320;BME280;19080;51.750;5.888;2024-02-04T11:20:46;101963.72;;;11.29;100.00
32320;BME280;19080;51.750;5.888;2024-02-04T11:25:54;101947.28;;;11.42;100.00
32320;BME280;19080;51.750;5.888;2024-02-04T11:28:25;101949.94;;;11.42;100.00
32320;BME280;19080;51.750;5.888;2024-02-04T11:30:52;101944.63;;;11.42;100.00
32320;BME280;19080;51.750;5.888;2024-02-04T11:33:21;101961.38;;;11.39;100.00
32320;BME280;19080;51.750;5.888;2024-02-04T11:36:03;101943.50;;;11.34;100.00
32320;BME280;19080;51.750;5.888;2024-02-04T11:38:32;101944.53;;;11.39;100.00
32320;BME280;19080;51.750;5.888;2024-02-04T11:41:05;101935.44;;;11.31;100.00
32320;BME280;19080;51.750;5.888;2024-02-04T11:43:33;101922.13;;;11.31;100.00
32320;BME280;19080;51.750;5.888;2024-02-04T11:46:04;101924.59;;;11.25;100.00
32320;BME280;19080;51.750;5.888;2024-02-04T11:48:33;101931.78;;;11.27;100.00
32320;BME280;19080;51.750;5.888;2024-02-04T11:51:01;101937.22;;;11.32;100.00
32320;BME280;19080;51.750;5.888;2024-02-04T11:53:29;101936.38;;;11.33;100.00
32320;BME280;19080;51.750;5.888;2024-02-04T11:56:00;101945.00;;;11.26;100.00
32320;BME280;19080;51.750;5.888;2024-02-04T11:58:27;101927.84;;;11.15;100.00
32320;BME280;19080;51.750;5.888;2024-02-04T12:00:56;101922.50;;;11.13;100.00
32320;BME280;19080;51.750;5.888;2024-02-04T12:03:31;101902.09;;;11.12;100.00
32320;BME280;19080;51.750;5.888;2024-02-04T12:05:58;101919.38;;;11.28;100.00
32320;BME280;19080;51.750;5.888;2024-02-04T12:08:31;101915.88;;;11.29;100.00
32320;BME280;19080;51.750;5.888;2024-02-04T12:10:59;101897.34;;;11.32;100.00
32320;BME280;19080;51.750;5.888;2024-02-04T12:13:28;101922.91;;;11.27;100.00
32320;BME280;19080;51.750;5.888;2024-02-04T12:15:55;101898.56;;;11.13;100.00
32320;BME280;19080;51.750;5.888;2024-02-04T12:18:22;101915.31;;;11.11;100.00
32320;BME280;19080;51.750;5.888;2024-02-04T12:20:48;101912.66;;;11.11;100.00
32320;BME280;19080;51.750;5.888;2024-02-04T12:23:18;101917.13;;;11.12;100.00
32320;BME280;19080;51.750;5.888;2024-02-04T12:25:45;101931.53;;;11.20;100.00
32320;BME280;19080;51.750;5.888;2024-02-04T12:28:13;101910.31;;;11.21;100.00
32320;BME280;19080;51.750;5.888;2024-02-04T12:30:40;101919.91;;;11.16;100.00
32320;BME280;19080;51.750;5.888;2024-02-04T12:33:07;101889.56;;;11.08;100.00
32320;BME280;19080;51.750;5.888;2024-02-04T12:35:35;101902.22;;;11.17;100.00
32320;BME280;19080;51.750;5.888;2024-02-04T12:38:02;101894.03;;;11.09;100.00
32320;BME280;19080;51.750;5.888;2024-02-04T12:40:31;101880.72;;;11.09;100.00
32320;BME280;19080;51.750;5.888;2024-02-04T12:42:59;101899.66;;;11.20;100.00
32320;BME280;19080;51.750;5.888;2024-02-04T12:45:32;101901.59;;;11.25;100.00
32320;BME280;19080;51.750;5.888;2024-02-04T12:47:59;101882.09;;;11.25;100.00
32320;BME280;19080;51.750;5.888;2024-02-04T12:50:26;101887.31;;;11.22;100.00